Nearby METAR Reports

 

EGNR - Hawarden (aut), United Kingdom
Distance from station: ESE 33mi, 53km
Updated: 25/09/2021 17:50
NOT Current
Mostly cloudy
Mostly cloudy
 Wind from SSE
Wind: SSE 9 mph , 15 km/h
Temperature: 21°C
Dew Point: 16°C
Humidity: 73%
Barometer: 1011 hPa
Clouds: Mostly cloudy
Visibility: 6 miles , 10 km
Cloud details: Partly cloudy 1097 m
Mostly cloudy 1372 m
2021/09/25 16:50 EGNR 251650Z 15008KT 9999 SCT036 BKN045 21/16 Q1011
EGOV - Valley Raf, United Kingdom
Distance from station: W 33mi, 53km
Updated: 26/09/2021 03:50
Mostly cloudy
Mostly cloudy
 Wind from SSW
Wind: SSW 16 mph , 26 km/h
Temperature: 16°C
Dew Point: 15°C
Humidity: 94%
Barometer: 1008 hPa
Clouds: Mostly cloudy
Visibility: 6 miles , 10 km
Cloud details: Mostly cloudy 549 m
Mostly cloudy 1494 m
2021/09/26 02:50 EGOV 260250Z AUTO 20014KT 9999 BKN018/// BKN049/// 16/15 Q1008
 
EGGP - Liverpool Airpor, United Kingdom
Distance from station: E 37mi, 59km
Updated: 26/09/2021 04:20
Mostly cloudy
Mostly cloudy
 Wind from SSE
Wind: SSE 7 mph , 11 km/h
Temperature: 16°C
Dew Point: 15°C
Humidity: 94%
Barometer: 1008 hPa
Clouds: Mostly cloudy
Visibility: 6 miles , 10 km
Cloud details: Partly cloudy 549 m
Mostly cloudy 762 m
2021/09/26 03:20 EGGP 260320Z AUTO 16006KT 9999 SCT018/// BKN025/// 16/15 Q1008
EGNH - Blackpool Airpor, United Kingdom
Distance from station: NE 44mi, 72km
Updated: 25/09/2021 19:50
NOT Current
Mostly cloudy
Mostly cloudy
 Wind from varies
Wind: varies 3 mph , 6 km/h
Temperature: 19°C
Dew Point: 16°C
Humidity: 83%
Barometer: 1010 hPa
Clouds: Mostly cloudy
Visibility: 6 miles , 10 km
Cloud details: Mostly cloudy 762 m
2021/09/25 18:50 EGNH 251850Z VRB03KT 9999 BKN025 19/16 Q1010
 
EGNO - Wharton, United Kingdom
Distance from station: NE 47mi, 76km
Updated: 24/09/2021 16:50
NOT Current
Mostly cloudy
Mostly cloudy
 Wind from W
Wind: W 18 mph , 30 km/h
Temperature: 19°C
Dew Point: 16°C
Humidity: 83%
Barometer: 1012 hPa
Clouds: Mostly cloudy
Visibility: 6 miles , 10 km
Cloud details: Mostly cloudy 762 m
2021/09/24 15:50 EGNO 241550Z 27016KT 9999 BKN025 19/16 Q1012
EGOS - Shawbury Raf, United Kingdom
Distance from station: SE 56mi, 89km
Updated: 26/09/2021 03:50
Mostly cloudy
Mostly cloudy
 Wind from SE
Wind: SE 6 mph , 9 km/h
Temperature: 17°C
Dew Point: 16°C
Humidity: 94%
Barometer: 1009 hPa
Clouds: Mostly cloudy
Visibility: 6 miles , 10 km
Cloud details: Partly cloudy 274 m
Mostly cloudy 1402 m
2021/09/26 02:50 EGOS 260250Z AUTO 13005KT 9999 SCT009/// BKN046/// 17/16 Q1009
 
EGCC - Manchester Intl, United Kingdom
Distance from station: E 61mi, 98km
Updated: 26/09/2021 04:20
Clear
Clear
 Wind from varies
Wind: varies 3 mph , 6 km/h
Temperature: 16°C
Dew Point: 15°C
Humidity: 94%
Barometer: 1009 hPa
Clouds: Clear
Visibility: 6 miles , 10 km
2021/09/26 03:20 EGCC 260320Z AUTO VRB03KT 9999 NCD 16/15 Q1009
EGNS - Isle Of Man/Rona, United Kingdom
Distance from station: NW 66mi, 107km
Updated: 26/09/2021 03:50
Overcast
Overcast
 Wind from S
Wind: S 14 mph , 22 km/h
Temperature: 16°C
Dew Point: 15°C
Humidity: 94%
Barometer: 1007 hPa
Clouds: Overcast
Visibility: 6 miles , 10 km
Cloud details: Partly cloudy 122 m
Overcast 213 m
2021/09/26 02:50 EGNS 260250Z 19012KT 9999 SCT004 OVC007 16/15 Q1007
 
EGNM - Leeds And Bradfo, United Kingdom
Distance from station: ENE 95mi, 153km
Updated: 26/09/2021 02:20
NOT Current
Few Clouds
Few Clouds
 Wind from S
Wind: S 6 mph , 9 km/h
Temperature: 15°C
Dew Point: 13°C
Humidity: 88%
Barometer: 1010 hPa
Clouds: Few Clouds
Visibility: 6 miles , 10 km
Cloud details: Few Clouds 1097 m
2021/09/26 01:20 EGNM 260120Z 18005KT 9999 FEW036 15/13 Q1010
EGBB - Birmingham Airpo, United Kingdom
Distance from station: ESE 100mi, 161km
Updated: 26/09/2021 03:50
Mostly cloudy
Mostly cloudy
 Wind from SSE
Wind: SSE 6 mph , 9 km/h
Temperature: 16°C
Dew Point: 15°C
Humidity: 94%
Barometer: 1010 hPa
Clouds: Mostly cloudy
Visibility: 6 miles , 10 km
Cloud details: Mostly cloudy 1006 m
2021/09/26 02:50 EGBB 260250Z 16005KT 9999 BKN033 16/15 Q1010